Time;durP1;ratioP1;P1;durP2;ratioP2;P2;SDS_P1;SDS_P2;PMS_P1;PMS_P2;Temp;Humidity;BMP_temperature;BMP_pressure;BME280_temperature;BME280_humidity;BME280_pressure;Samples;Min_cycle;Max_cycle;Signal;HPM_P1;HPM_P2
2022/04/28 00:02:14;;;;;;;2.90;1.77;;;;;;;21.46;50.13;99594.34;4961929;28;20050;-86
2022/04/28 00:04:39;;;;;;;5.00;2.25;;;;;;;21.45;50.07;99587.34;4959661;28;20055;-87
2022/04/28 00:07:05;;;;;;;2.72;1.77;;;;;;;21.45;50.16;99584.69;4943887;29;20039;-86
2022/04/28 00:09:30;;;;;;;2.60;1.80;;;;;;;21.45;50.26;99590.00;4957507;28;20028;-86
2022/04/28 00:11:56;;;;;;;3.97;2.28;;;;;;;21.43;50.08;99586.59;4941608;29;20027;-88
2022/04/28 00:14:22;;;;;;;3.70;2.05;;;;;;;21.43;50.07;99591.91;4943298;29;20023;-89
2022/04/28 00:16:47;;;;;;;3.97;1.90;;;;;;;21.43;49.97;99594.56;4942704;29;20334;-88
2022/04/28 00:19:13;;;;;;;3.28;2.05;;;;;;;21.43;50.27;99591.03;4945091;29;20027;-87
2022/04/28 00:21:39;;;;;;;3.40;1.90;;;;;;;21.42;50.05;99594.66;4941104;29;20480;-87
2022/04/28 00:24:05;;;;;;;3.33;1.60;;;;;;;21.40;50.10;99585.94;4941878;29;20099;-88
2022/04/28 00:26:30;;;;;;;2.50;1.75;;;;;;;21.41;50.16;99593.78;4941695;29;20102;-87
2022/04/28 00:28:56;;;;;;;4.00;2.45;;;;;;;21.40;50.23;99592.09;4941324;29;20054;-87
2022/04/28 00:31:21;;;;;;;3.55;2.03;;;;;;;21.39;50.21;99590.38;4940257;29;20028;-88
2022/04/28 00:33:48;;;;;;;4.40;2.10;;;;;;;21.38;50.17;99588.69;4955174;28;20121;-88
2022/04/28 00:36:17;;;;;;;3.28;1.77;;;;;;;21.38;50.17;99588.69;4956714;28;20028;-88
2022/04/28 00:38:43;;;;;;;3.40;1.75;;;;;;;21.38;50.32;99586.03;4956687;28;20107;-89
2022/04/28 00:41:08;;;;;;;3.13;1.90;;;;;;;21.38;50.21;99583.38;4956296;28;20106;-88
2022/04/28 00:43:48;;;;;;;4.00;1.75;;;;;;;21.37;50.40;99581.66;4955492;28;20082;-87
2022/04/28 00:46:14;;;;;;;4.00;2.10;;;;;;;21.38;50.19;99587.81;4940201;29;20168;-87
2022/04/28 00:51:24;;;;;;;3.85;2.05;;;;;;;21.36;50.23;99579.94;4942353;29;20098;-87
2022/04/28 00:53:52;;;;;;;2.45;1.50;;;;;;;21.36;50.18;99590.56;4940536;29;20027;-89
2022/04/28 00:56:18;;;;;;;5.32;1.90;;;;;;;21.34;50.39;99584.50;4939889;29;20086;-87
2022/04/28 00:58:44;;;;;;;2.78;1.58;;;;;;;21.33;50.47;99585.44;4960480;28;20457;-89
2022/04/28 01:01:09;;;;;;;3.00;1.75;;;;;;;21.31;50.36;99587.34;4940290;29;20024;-89
2022/04/28 01:03:35;;;;;;;3.03;1.80;;;;;;;21.32;49.99;99583.75;4960275;28;20028;-88
2022/04/28 01:06:04;;;;;;;4.57;1.90;;;;;;;21.29;50.34;99581.25;4944674;29;20032;-88
2022/04/28 01:08:30;;;;;;;2.78;1.80;;;;;;;21.29;50.33;99581.25;4944409;29;20031;-89
2022/04/28 01:10:56;;;;;;;3.05;1.83;;;;;;;21.29;50.46;99578.59;4945523;29;20045;-88
2022/04/28 01:13:22;;;;;;;3.25;1.95;;;;;;;21.28;50.19;99582.22;4964303;28;20123;-88
2022/04/28 01:15:49;;;;;;;4.22;2.00;;;;;;;21.27;50.45;99586.69;4966607;28;20027;-88
2022/04/28 01:18:16;;;;;;;3.42;2.05;;;;;;;21.27;50.14;99585.81;4948432;29;20114;-88
2022/04/28 01:20:43;;;;;;;3.70;1.90;;;;;;;21.26;50.56;99584.13;4962866;28;20049;-86
2022/04/28 01:23:10;;;;;;;2.50;1.77;;;;;;;21.26;50.54;99581.47;4962222;29;20034;-89
2022/04/28 01:25:35;;;;;;;2.25;1.55;;;;;;;21.26;50.50;99584.13;4946058;29;20028;-88
2022/04/28 01:28:01;;;;;;;4.28;2.05;;;;;;;21.25;50.50;99587.72;4950738;29;20019;-89
2022/04/28 01:30:28;;;;;;;3.15;1.90;;;;;;;21.24;50.57;99586.00;4953770;29;20032;-89
2022/04/28 01:32:57;;;;;;;3.20;1.70;;;;;;;21.24;50.56;99591.28;4953886;29;20031;-89
2022/04/28 01:35:22;;;;;;;3.65;1.90;;;;;;;21.25;50.49;99588.56;4954657;29;20047;-90
2022/04/28 01:37:48;;;;;;;3.45;1.60;;;;;;;21.24;50.33;99593.94;4956808;29;20023;-89
2022/04/28 01:40:14;;;;;;;3.10;1.95;;;;;;;21.23;50.36;99592.25;4959113;29;20024;-89
2022/04/28 01:42:40;;;;;;;2.95;1.90;;;;;;;21.22;50.41;99594.06;4959516;29;20048;-89
2022/04/28 01:45:10;;;;;;;3.40;1.98;;;;;;;21.22;50.44;99598.50;4955360;29;20423;-89
2022/04/28 01:47:36;;;;;;;2.42;1.42;;;;;;;21.22;50.65;99598.50;4964619;28;20026;-88
2022/04/28 01:50:03;;;;;;;3.22;1.92;;;;;;;21.22;50.51;99598.50;4948648;29;20450;-88
2022/04/28 01:55:14;;;;;;;2.95;1.80;;;;;;;21.22;50.48;99598.50;4951591;29;20051;-88
2022/04/28 01:57:39;;;;;;;3.05;1.70;;;;;;;21.19;50.55;99599.53;4949915;29;20016;-88
2022/04/28 02:00:06;;;;;;;3.63;2.08;;;;;;;21.17;50.47;99599.63;4952125;29;20063;-86
2022/04/28 02:02:33;;;;;;;2.92;1.80;;;;;;;21.17;50.63;99596.97;4964896;28;20040;-88
2022/04/28 02:04:59;;;;;;;3.33;1.77;;;;;;;21.16;50.42;99597.94;4949533;29;20035;-88
2022/04/28 02:07:31;;;;;;;3.45;1.75;;;;;;;21.14;50.42;99597.16;4949904;29;20086;-88
2022/04/28 02:09:58;;;;;;;2.90;1.70;;;;;;;21.14;50.66;99601.63;4947655;29;20031;-88
2022/04/28 02:12:25;;;;;;;2.83;1.52;;;;;;;21.12;50.48;99601.69;4948524;29;20604;-88
2022/04/28 02:14:51;;;;;;;2.75;1.65;;;;;;;21.10;50.65;99606.25;4962768;28;20033;-88
2022/04/28 02:17:22;;;;;;;3.70;1.95;;;;;;;21.08;50.69;99600.19;4946938;29;20059;-88
2022/04/28 02:19:48;;;;;;;2.72;1.80;;;;;;;21.08;50.77;99608.16;4946170;29;20401;-88
2022/04/28 02:22:14;;;;;;;2.45;1.65;;;;;;;21.07;50.85;99603.78;4944650;29;20031;-87
2022/04/28 02:24:40;;;;;;;2.33;1.42;;;;;;;21.05;50.70;99606.53;4942878;29;20107;-86
2022/04/28 02:27:06;;;;;;;2.67;1.70;;;;;;;21.04;50.95;99603.97;4944224;29;20028;-89
2022/04/28 02:29:32;;;;;;;3.00;1.85;;;;;;;21.02;50.75;99604.03;4944407;29;20035;-86
2022/04/28 02:31:58;;;;;;;4.00;1.85;;;;;;;21.02;50.73;99608.50;4944490;29;20027;-88
2022/04/28 02:34:23;;;;;;;3.60;1.80;;;;;;;21.02;50.74;99611.16;4960069;28;20034;-88
2022/04/28 02:36:49;;;;;;;4.13;2.17;;;;;;;20.99;50.77;99606.03;4943807;29;20027;-88
2022/04/28 02:39:17;;;;;;;3.03;1.60;;;;;;;20.97;50.94;99610.56;4943878;29;20110;-88
2022/04/28 02:41:42;;;;;;;3.05;1.60;;;;;;;20.96;51.00;99603.56;4959048;28;20071;-87
2022/04/28 02:44:08;;;;;;;3.90;2.00;;;;;;;20.96;50.81;99604.41;4944674;29;20114;-88
2022/04/28 02:46:34;;;;;;;3.85;2.10;;;;;;;20.97;50.67;99615.88;4943434;29;20027;-88
2022/04/28 02:49:00;;;;;;;3.28;1.90;;;;;;;20.99;50.86;99614.84;4960828;28;20087;-87
2022/04/28 02:51:26;;;;;;;2.42;1.55;;;;;;;20.99;50.89;99614.84;4946504;29;20027;-89
2022/04/28 02:53:52;;;;;;;2.83;1.80;;;;;;;21.00;50.86;99613.03;4962756;28;20043;-88
2022/04/28 02:56:18;;;;;;;2.60;1.83;;;;;;;20.98;50.96;99617.59;4961385;28;20470;-88
2022/04/28 02:58:43;;;;;;;3.00;1.65;;;;;;;20.99;51.00;99624.59;4945999;29;20027;-88
2022/04/28 03:01:09;;;;;;;3.97;1.85;;;;;;;20.99;50.95;99620.16;4945160;29;20039;-88
2022/04/28 03:03:35;;;;;;;3.08;1.83;;;;;;;20.98;50.82;99617.59;4946460;29;20028;-88
2022/04/28 03:11:30;;;;;;;3.42;1.67;;;;;;;21.00;50.77;99624.50;4948694;29;20045;-88
2022/04/28 03:13:56;;;;;;;3.97;1.90;;;;;;;20.98;50.67;99628.19;4964427;28;20103;-88
2022/04/28 03:16:23;;;;;;;3.00;1.73;;;;;;;20.97;50.98;99631.81;4948035;29;20081;-87
2022/04/28 03:18:49;;;;;;;2.83;1.70;;;;;;;20.96;50.85;99630.94;4950567;29;20024;-88
2022/04/28 03:21:14;;;;;;;2.42;1.63;;;;;;;20.94;51.04;99627.53;4949318;29;20090;-87
2022/04/28 03:23:40;;;;;;;2.53;1.65;;;;;;;20.92;50.87;99630.25;4950453;29;20425;-88
2022/04/28 03:26:06;;;;;;;2.53;1.55;;;;;;;20.92;50.86;99629.44;4963996;28;20112;-88
2022/04/28 03:28:35;;;;;;;2.65;1.80;;;;;;;20.91;51.09;99630.34;4965812;28;20128;-89
2022/04/28 03:31:06;;;;;;;4.00;1.85;;;;;;;20.89;50.82;99630.47;4967147;28;20046;-88
2022/04/28 03:33:32;;;;;;;3.30;1.80;;;;;;;20.92;50.90;99624.97;4953474;29;20027;-88
2022/04/28 03:35:58;;;;;;;3.15;1.80;;;;;;;20.89;50.96;99619.84;4953878;29;20454;-88
2022/04/28 03:38:24;;;;;;;3.53;2.17;;;;;;;20.88;50.77;99630.53;4952632;29;20062;-89
2022/04/28 03:40:49;;;;;;;4.40;2.03;;;;;;;20.90;50.98;99632.16;4953949;29;20024;-88
2022/04/28 03:43:15;;;;;;;5.70;1.98;;;;;;;20.86;50.85;99625.31;4969484;28;20059;-90
2022/04/28 03:45:44;;;;;;;4.30;2.13;;;;;;;20.86;50.98;99635.06;4956073;29;20031;-89
2022/04/28 03:48:11;;;;;;;3.85;2.17;;;;;;;20.84;50.94;99637.78;4973231;28;20054;-89
2022/04/28 03:50:37;;;;;;;4.70;2.00;;;;;;;20.87;50.85;99642.09;4943078;29;20026;-89
2022/04/28 03:53:04;;;;;;;4.10;1.90;;;;;;;20.85;50.82;99644.81;4958564;28;20051;-89
2022/04/28 03:55:30;;;;;;;4.00;2.08;;;;;;;20.84;50.93;99643.09;4958010;29;20024;-89
2022/04/28 03:57:56;;;;;;;3.63;1.88;;;;;;;20.83;51.19;99638.75;4973517;29;20028;-89
2022/04/28 04:00:22;;;;;;;3.45;1.80;;;;;;;20.85;50.98;99644.81;4956413;29;20353;-90
2022/04/28 04:02:48;;;;;;;4.15;2.30;;;;;;;20.84;50.96;99655.50;4972222;28;20027;-88
2022/04/28 04:05:14;;;;;;;3.95;1.98;;;;;;;20.85;50.95;99660.75;4972157;28;20039;-89
2022/04/28 04:07:42;;;;;;;3.92;1.83;;;;;;;20.85;50.78;99671.34;4973044;28;20035;-88
2022/04/28 04:10:10;;;;;;;3.40;2.05;;;;;;;20.85;50.98;99676.66;4972130;28;20024;-89
2022/04/28 04:12:38;;;;;;;3.20;1.83;;;;;;;20.86;50.98;99675.72;4967488;28;20027;-88
2022/04/28 04:15:06;;;;;;;3.10;1.77;;;;;;;20.86;50.97;99681.00;4951593;29;20031;-88
2022/04/28 04:17:39;;;;;;;3.30;2.05;;;;;;;20.87;51.00;99682.72;4946644;29;20031;-89
2022/04/28 04:20:05;;;;;;;3.92;2.10;;;;;;;20.86;51.25;99683.66;4947463;29;20043;-88
2022/04/28 04:22:30;;;;;;;3.72;1.70;;;;;;;20.87;51.11;99690.69;4962235;28;20540;-88
2022/04/28 04:24:56;;;;;;;3.65;1.65;;;;;;;20.86;50.94;99696.06;4962753;28;20024;-89
2022/04/28 04:27:21;;;;;;;3.42;2.10;;;;;;;20.85;51.07;99691.69;4947010;29;20020;-88
2022/04/28 04:29:47;;;;;;;3.17;1.67;;;;;;;20.86;51.04;99693.41;4947596;29;20028;-88
2022/04/28 04:32:18;;;;;;;3.83;2.00;;;;;;;20.86;50.77;99698.72;4947224;29;20034;-88
2022/04/28 04:34:45;;;;;;;3.95;1.88;;;;;;;20.84;50.96;99696.13;4948803;29;20039;-88
2022/04/28 04:37:11;;;;;;;2.92;1.90;;;;;;;20.83;50.93;99702.38;4966557;28;20019;-88
2022/04/28 04:39:38;;;;;;;3.10;1.70;;;;;;;20.82;50.75;99703.31;4948195;29;20031;-88
2022/04/28 04:42:03;;;;;;;2.88;1.95;;;;;;;20.84;50.93;99701.44;4949717;29;20094;-88
2022/04/28 04:44:29;;;;;;;2.38;1.58;;;;;;;20.82;51.01;99698.00;4949205;29;20016;-88
2022/04/28 04:46:55;;;;;;;3.38;2.15;;;;;;;20.84;50.99;99705.88;4948166;29;20129;-88
2022/04/28 04:49:20;;;;;;;2.90;1.77;;;;;;;20.83;50.76;99710.34;4948062;29;20028;-89
2022/04/28 04:51:46;;;;;;;3.08;1.75;;;;;;;20.83;50.95;99699.75;4963239;28;20091;-88
2022/04/28 04:54:14;;;;;;;2.80;1.90;;;;;;;20.83;50.94;99705.03;4948175;29;20052;-87
2022/04/28 04:56:39;;;;;;;2.92;1.77;;;;;;;20.82;50.86;99698.00;4950173;29;20067;-88
2022/04/28 04:59:05;;;;;;;2.90;1.77;;;;;;;20.82;51.07;99708.59;4951027;29;20564;-88
2022/04/28 05:01:30;;;;;;;2.60;1.73;;;;;;;20.84;50.95;99706.75;4952546;29;20090;-89
2022/04/28 05:03:56;;;;;;;3.28;2.05;;;;;;;20.81;51.09;99696.28;4965698;28;20118;-88
2022/04/28 05:06:21;;;;;;;2.78;1.70;;;;;;;20.81;51.17;99706.91;4966279;29;20047;-88
2022/04/28 05:08:47;;;;;;;2.78;1.60;;;;;;;20.83;50.96;99709.47;4946710;29;20028;-89
2022/04/28 05:11:13;;;;;;;3.13;1.88;;;;;;;20.82;50.84;99721.03;4967902;29;20035;-88
2022/04/28 05:13:39;;;;;;;2.65;1.77;;;;;;;20.80;50.99;99726.41;4970617;29;20090;-87
2022/04/28 05:16:05;;;;;;;3.17;1.77;;;;;;;20.82;51.15;99724.53;4967242;29;20043;-89
2022/04/28 05:18:30;;;;;;;3.08;1.70;;;;;;;20.79;50.91;99725.53;4970343;29;20031;-88
2022/04/28 05:20:58;;;;;;;3.60;1.88;;;;;;;20.80;50.94;99726.41;4961783;29;20466;-87
2022/04/28 05:23:23;;;;;;;3.08;1.80;;;;;;;20.80;50.95;99731.72;4974997;28;20042;-88
2022/04/28 05:25:49;;;;;;;4.40;2.10;;;;;;;20.79;51.11;99730.00;4957581;29;20031;-88
2022/04/28 05:28:15;;;;;;;3.20;2.00;;;;;;;20.81;50.83;99736.06;4963746;29;20536;-89
2022/04/28 05:30:41;;;;;;;3.33;1.80;;;;;;;20.77;51.06;99735.41;4963397;29;20055;-88
2022/04/28 05:33:06;;;;;;;3.20;1.75;;;;;;;20.77;50.91;99746.00;4962974;29;20058;-88
2022/04/28 05:35:37;;;;;;;4.88;2.13;;;;;;;20.76;50.99;99743.44;4959633;29;20031;-88
2022/04/28 05:38:02;;;;;;;3.05;2.00;;;;;;;20.76;50.86;99751.38;4979629;28;20028;-88
2022/04/28 05:40:28;;;;;;;2.67;1.83;;;;;;;20.72;51.04;99749.88;4983122;28;20118;-88
2022/04/28 05:45:41;;;;;;;3.53;2.15;;;;;;;20.73;51.07;99752.41;4958361;29;20062;-89
2022/04/28 05:48:15;;;;;;;4.38;1.60;;;;;;;20.71;51.00;99756.09;4981953;28;20027;-88
2022/04/28 05:50:42;;;;;;;3.45;2.30;;;;;;;20.72;51.06;99761.31;4953604;29;20091;-88
2022/04/28 05:53:08;;;;;;;3.25;1.85;;;;;;;20.71;51.24;99762.25;4963064;29;20027;-86
2022/04/28 05:55:34;;;;;;;3.28;2.20;;;;;;;20.72;51.03;99768.44;4964146;28;20030;-87
2022/04/28 05:58:00;;;;;;;3.58;1.88;;;;;;;20.72;51.24;99773.72;4957174;29;20115;-88
2022/04/28 06:00:26;;;;;;;2.90;1.77;;;;;;;20.73;51.00;99775.44;4949462;29;20027;-87
2022/04/28 06:02:53;;;;;;;3.10;1.98;;;;;;;20.73;51.30;99768.31;4960103;29;20023;-87
2022/04/28 06:05:19;;;;;;;2.47;1.88;;;;;;;20.73;50.96;99773.63;4968100;29;20601;-87
2022/04/28 06:07:45;;;;;;;2.97;1.95;;;;;;;20.73;51.16;99772.78;4976278;28;20110;-87
2022/04/28 06:10:12;;;;;;;3.30;1.85;;;;;;;20.72;51.09;99782.53;4969510;29;20079;-88
2022/04/28 06:12:38;;;;;;;3.50;1.80;;;;;;;20.72;51.20;99784.34;4964246;29;20042;-87
2022/04/28 06:15:04;;;;;;;3.70;2.00;;;;;;;20.72;51.33;99787.81;4958006;29;20050;-88
2022/04/28 06:17:29;;;;;;;2.88;1.83;;;;;;;20.72;51.20;99797.59;4974472;29;20085;-88
2022/04/28 06:19:55;;;;;;;2.75;1.75;;;;;;;20.72;51.03;99797.59;4975023;28;20047;-88
2022/04/28 06:22:20;;;;;;;3.17;2.13;;;;;;;20.73;50.94;99804.59;4967976;29;20034;-88
2022/04/28 06:24:53;;;;;;;3.10;2.03;;;;;;;20.73;51.07;99804.59;4974209;29;20095;-87
2022/04/28 06:27:19;;;;;;;3.63;1.63;;;;;;;20.71;51.40;99806.47;4971509;29;20023;-87
2022/04/28 06:29:45;;;;;;;3.85;1.65;;;;;;;20.71;51.33;99815.28;4961829;29;20023;-89
2022/04/28 06:32:11;;;;;;;3.05;1.88;;;;;;;20.71;51.11;99817.06;4975464;28;20038;-87
2022/04/28 06:34:37;;;;;;;3.97;1.63;;;;;;;20.72;51.23;99818.81;4973244;29;20091;-88
2022/04/28 06:37:04;;;;;;;3.53;2.20;;;;;;;20.71;51.21;99822.38;4975492;29;20027;-88
2022/04/28 06:39:29;;;;;;;2.67;1.70;;;;;;;20.71;51.25;99822.38;4993064;28;20027;-87
2022/04/28 06:41:55;;;;;;;3.58;2.17;;;;;;;20.70;51.34;99831.28;4974893;29;20053;-86
2022/04/28 06:44:21;;;;;;;3.88;2.20;;;;;;;20.69;51.30;99834.88;4966475;29;20031;-87
2022/04/28 06:46:46;;;;;;;3.08;1.83;;;;;;;20.69;51.37;99835.75;4968761;29;20435;-87
2022/04/28 06:49:12;;;;;;;3.25;1.90;;;;;;;20.69;51.24;99846.34;4968301;29;20155;-86
2022/04/28 06:51:37;;;;;;;3.72;2.10;;;;;;;20.70;51.24;99847.19;4986342;28;20067;-87
2022/04/28 06:54:03;;;;;;;3.35;1.90;;;;;;;20.70;51.27;99847.19;4982841;28;20042;-87
2022/04/28 06:56:29;;;;;;;4.43;2.30;;;;;;;20.71;51.27;99846.25;4970830;29;20086;-87
2022/04/28 06:58:55;;;;;;;3.22;2.10;;;;;;;20.71;51.36;99849.75;4972513;28;20027;-88
2022/04/28 07:01:20;;;;;;;4.10;2.22;;;;;;;20.71;51.03;99848.91;4972175;29;20098;-87
2022/04/28 07:03:46;;;;;;;3.60;2.00;;;;;;;20.71;51.38;99856.84;4948646;29;20039;-87
2022/04/28 07:06:12;;;;;;;3.10;2.08;;;;;;;20.71;51.38;99854.19;4969590;29;20027;-89
2022/04/28 07:08:38;;;;;;;3.55;1.67;;;;;;;20.71;51.53;99854.19;4979964;28;20023;-88
2022/04/28 07:11:03;;;;;;;3.55;1.90;;;;;;;20.69;51.32;99856.97;4980832;28;20027;-88
2022/04/28 07:13:32;;;;;;;4.68;2.20;;;;;;;20.68;51.29;99859.69;4965150;29;20111;-89
2022/04/28 07:15:58;;;;;;;6.47;2.65;;;;;;;20.69;51.16;99867.56;4955144;29;20027;-88
2022/04/28 07:18:23;;;;;;;4.10;1.92;;;;;;;20.71;51.47;99872.75;4958945;29;20038;-90
2022/04/28 07:20:49;;;;;;;2.80;1.75;;;;;;;20.71;51.23;99878.06;4950723;28;20046;-88
2022/04/28 07:23:15;;;;;;;3.55;2.00;;;;;;;20.71;51.33;99872.75;4951607;29;20110;-87
2022/04/28 07:25:41;;;;;;;4.03;1.67;;;;;;;20.71;51.30;99875.41;4961368;29;20027;-87
2022/04/28 07:28:07;;;;;;;2.75;1.65;;;;;;;20.70;51.34;99879.00;4961625;29;20030;-87
2022/04/28 07:30:34;;;;;;;2.88;1.98;;;;;;;20.69;51.36;99879.94;4953124;29;20038;-87
2022/04/28 07:32:59;;;;;;;2.13;1.52;;;;;;;20.66;51.30;99878.31;4979265;28;20038;-87
2022/04/28 07:35:25;;;;;;;2.72;1.80;;;;;;;20.69;51.19;99883.47;4953853;29;20027;-87
2022/04/28 07:37:52;;;;;;;3.25;1.88;;;;;;;20.66;51.63;99884.50;4975405;28;20046;-87
2022/04/28 07:40:18;;;;;;;2.67;1.80;;;;;;;20.67;51.30;99885.31;4958478;29;20051;-87
2022/04/28 07:42:45;;;;;;;3.40;1.80;;;;;;;20.68;51.42;99886.19;4969282;28;20055;-88
2022/04/28 07:45:29;;;;;;;4.00;2.17;;;;;;;20.69;51.30;99893.22;4956499;28;20075;-90
2022/04/28 07:47:56;;;;;;;4.80;1.90;;;;;;;20.67;51.27;99895.94;4955547;29;20042;-89
2022/04/28 07:50:22;;;;;;;3.42;1.80;;;;;;;20.70;51.51;99895.78;4955633;29;20028;-88
2022/04/28 07:52:48;;;;;;;2.97;1.60;;;;;;;20.68;51.62;99892.34;4963994;29;20047;-88
2022/04/28 07:55:14;;;;;;;2.85;1.75;;;;;;;20.70;51.67;99894.91;4980874;28;20024;-88
2022/04/28 07:57:41;;;;;;;3.58;2.00;;;;;;;20.70;51.52;99894.91;4966301;29;20023;-89
2022/04/28 08:00:09;;;;;;;7.32;2.30;;;;;;;20.70;51.58;99894.91;4966534;28;20023;-89
2022/04/28 08:02:38;;;;;;;3.83;1.90;;;;;;;20.70;51.75;99900.22;4973933;28;20118;-89
2022/04/28 08:05:06;;;;;;;4.65;2.00;;;;;;;20.70;51.57;99901.09;4976340;28;20027;-89
2022/04/28 08:07:34;;;;;;;4.25;1.92;;;;;;;20.71;51.81;99904.59;4948377;29;20023;-89
2022/04/28 08:10:00;;;;;;;4.35;2.15;;;;;;;20.71;51.98;99908.09;4977858;28;20034;-86
2022/04/28 08:12:25;;;;;;;5.78;2.22;;;;;;;20.72;52.08;99907.16;4959401;29;20026;-89
2022/04/28 08:14:51;;;;;;;4.47;2.15;;;;;;;20.73;51.96;99908.03;4946873;28;20043;-88
2022/04/28 08:17:17;;;;;;;3.47;1.88;;;;;;;20.69;51.92;99915.28;4959685;29;20042;-86
2022/04/28 08:19:43;;;;;;;5.13;2.00;;;;;;;20.71;51.83;99916.06;4960036;29;20035;-87
2022/04/28 08:22:09;;;;;;;4.13;2.15;;;;;;;20.71;51.87;99923.16;4959107;28;20027;-89
2022/04/28 08:24:35;;;;;;;3.55;1.88;;;;;;;20.73;51.65;99931.91;4959646;29;20035;-87
2022/04/28 08:27:01;;;;;;;3.45;2.13;;;;;;;20.71;51.87;99931.97;4977209;28;20041;-85
2022/04/28 08:29:27;;;;;;;4.22;2.08;;;;;;;20.71;51.78;99933.75;4955397;29;20028;-87
2022/04/28 08:31:53;;;;;;;5.07;2.13;;;;;;;20.72;51.87;99931.03;4954348;29;20031;-86
2022/04/28 08:34:19;;;;;;;4.18;2.30;;;;;;;20.72;51.70;99935.50;4959290;29;20019;-85
2022/04/28 08:36:47;;;;;;;4.85;2.25;;;;;;;20.72;51.88;99935.50;4959569;29;20031;-87
2022/04/28 08:39:13;;;;;;;3.30;1.90;;;;;;;20.71;51.75;99941.72;4959301;29;20545;-86
2022/04/28 08:41:47;;;;;;;6.32;2.15;;;;;;;20.72;51.87;99930.19;4960462;29;20067;-88
2022/04/28 08:44:18;;;;;;;5.32;2.22;;;;;;;20.71;52.13;99939.06;4964643;28;20032;-85
2022/04/28 08:46:51;;;;;;;3.35;1.77;;;;;;;20.71;51.98;99945.22;4938517;29;20042;-87
2022/04/28 08:49:23;;;;;;;3.13;1.88;;;;;;;20.72;52.09;99943.44;4956324;29;20465;-86
2022/04/28 08:51:54;;;;;;;4.50;2.25;;;;;;;20.73;52.06;99947.81;4966513;28;20373;-86
2022/04/28 08:54:22;;;;;;;3.25;1.95;;;;;;;20.72;51.95;99952.25;4961342;29;20023;-87
2022/04/28 08:56:50;;;;;;;3.60;2.05;;;;;;;20.71;52.14;99960.28;4962834;29;20038;-87
2022/04/28 08:59:23;;;;;;;4.57;2.22;;;;;;;20.73;51.94;99955.75;4959189;29;20055;-86
2022/04/28 09:01:52;;;;;;;4.07;2.22;;;;;;;20.71;51.98;99954.97;4954050;29;20037;-87
2022/04/28 09:04:18;;;;;;;5.60;2.38;;;;;;;20.73;51.74;99958.41;4961546;29;20548;-86
2022/04/28 09:06:48;;;;;;;6.65;2.40;;;;;;;20.73;52.09;99958.41;4974618;28;20034;-83
2022/04/28 09:09:16;;;;;;;5.28;2.40;;;;;;;20.73;51.97;99963.72;4957993;28;20441;-87
2022/04/28 09:11:43;;;;;;;5.32;2.35;;;;;;;20.74;52.16;99965.44;4957894;29;20354;-88
2022/04/28 09:14:16;;;;;;;4.30;2.28;;;;;;;20.74;51.74;99960.13;4948608;29;20019;-87
2022/04/28 09:16:42;;;;;;;4.75;2.13;;;;;;;20.74;52.04;99965.44;4957385;29;20027;-87
2022/04/28 09:19:14;;;;;;;4.90;2.45;;;;;;;20.75;51.93;99970.66;4956788;29;20023;-86
2022/04/28 09:21:40;;;;;;;4.57;2.50;;;;;;;20.76;52.18;99971.50;4957862;29;20454;-87
2022/04/28 09:24:06;;;;;;;3.30;2.10;;;;;;;20.76;51.91;99974.16;4951171;29;20062;-87
2022/04/28 09:26:41;;;;;;;4.15;2.17;;;;;;;20.79;51.74;99977.50;4955642;29;20043;-87
2022/04/28 09:29:14;;;;;;;4.63;2.40;;;;;;;20.78;52.12;99974.94;4956349;29;20050;-86
2022/04/28 09:31:42;;;;;;;3.50;2.38;;;;;;;20.80;52.03;99975.72;4955945;29;20379;-85
2022/04/28 09:34:14;;;;;;;5.88;2.58;;;;;;;20.79;51.79;99974.00;4956388;28;20118;-86
2022/04/28 09:36:42;;;;;;;5.55;2.53;;;;;;;20.78;51.91;99975.78;4962883;28;20086;-85
2022/04/28 09:39:12;;;;;;;5.22;2.38;;;;;;;20.80;51.96;99975.72;4960070;28;20031;-85
2022/04/28 09:44:23;;;;;;;5.97;2.70;;;;;;;20.82;51.94;99979.13;4961233;29;20054;-85
2022/04/28 09:46:49;;;;;;;6.25;2.55;;;;;;;20.83;51.95;99988.84;4952459;29;20027;-85
2022/04/28 09:49:22;;;;;;;4.65;2.70;;;;;;;20.84;51.74;99985.22;4960054;29;20429;-85
2022/04/28 09:51:59;;;;;;;4.45;2.53;;;;;;;20.83;51.80;99988.84;4961477;29;20522;-86
2022/04/28 09:54:31;;;;;;;4.82;2.40;;;;;;;20.84;52.01;99987.88;4940467;29;20027;-85
2022/04/28 09:56:58;;;;;;;4.90;2.42;;;;;;;20.84;51.54;99981.72;4941805;29;20031;-86
2022/04/28 09:59:25;;;;;;;3.67;2.42;;;;;;;20.84;51.85;99987.88;4949118;29;20042;-86
2022/04/28 10:01:52;;;;;;;4.53;2.60;;;;;;;20.85;51.53;99979.03;4960908;28;20046;-86
2022/04/28 10:04:18;;;;;;;4.57;2.50;;;;;;;20.84;51.80;99985.22;4977418;28;20953;-87
2022/04/28 10:06:43;;;;;;;5.07;2.40;;;;;;;20.86;51.51;99990.47;4962183;28;20042;-87
2022/04/28 10:09:09;;;;;;;6.45;2.40;;;;;;;20.83;51.74;99991.47;4946813;29;20019;-86
2022/04/28 10:11:37;;;;;;;4.07;2.40;;;;;;;20.85;51.95;99992.28;4961232;29;20027;-87
2022/04/28 10:14:03;;;;;;;4.07;2.30;;;;;;;20.83;51.83;99983.53;4961358;29;20027;-88
2022/04/28 10:16:29;;;;;;;4.22;2.80;;;;;;;20.86;51.60;99988.69;4965227;28;20028;-86
2022/04/28 10:19:21;;;;;;;5.50;2.63;;;;;;;20.85;51.80;99994.06;4951429;29;20054;-85
2022/04/28 10:22:04;;;;;;;4.30;2.40;;;;;;;20.84;51.71;99987.88;4944341;29;20034;-84
2022/04/28 10:33:11;;;;;;;6.05;2.70;;;;;;;20.86;51.67;99990.47;4962659;29;20061;-85
2022/04/28 10:35:37;;;;;;;4.38;2.80;;;;;;;20.87;51.64;99995.69;4976817;28;20038;-86
2022/04/28 10:38:11;;;;;;;4.30;2.58;;;;;;;20.87;51.71;100003.66;4958332;28;20032;-86
2022/04/28 10:40:58;;;;;;;3.83;2.40;;;;;;;20.87;51.64;100003.66;4953507;29;20354;-85
2022/04/28 10:43:30;;;;;;;4.50;3.10;;;;;;;20.88;51.72;100002.72;4943178;29;20085;-85
2022/04/28 10:45:57;;;;;;;4.57;2.78;;;;;;;20.88;51.70;100000.06;4960302;28;20055;-84
2022/04/28 10:48:43;;;;;;;3.83;2.30;;;;;;;20.87;51.81;100001.00;4943784;29;20024;-86
2022/04/28 10:51:12;;;;;;;4.35;2.70;;;;;;;20.88;51.73;100000.06;4944935;29;20042;-86
2022/04/28 10:54:21;;;;;;;4.55;2.47;;;;;;;20.88;51.73;99999.22;4962231;28;20035;-85
2022/04/28 10:57:02;;;;;;;4.35;2.35;;;;;;;20.88;51.62;100000.06;4961918;29;20019;-85
2022/04/28 10:59:40;;;;;;;4.13;2.33;;;;;;;20.91;51.56;100007.88;4960574;29;20035;-85
2022/04/28 11:02:11;;;;;;;4.68;2.53;;;;;;;20.93;51.47;100003.34;4957668;29;20042;-85
2022/04/28 11:04:55;;;;;;;3.95;2.55;;;;;;;20.93;51.62;100008.66;4949780;29;20027;-86
2022/04/28 11:07:25;;;;;;;4.05;2.25;;;;;;;20.96;51.64;100001.47;4960558;28;20031;-86
2022/04/28 11:09:55;;;;;;;4.00;2.40;;;;;;;20.95;51.58;100005.91;4950747;29;20031;-85
2022/04/28 11:12:23;;;;;;;7.05;2.40;;;;;;;20.98;51.38;100010.22;4950663;28;20465;-85
2022/04/28 11:14:52;;;;;;;4.10;2.35;;;;;;;20.97;51.60;100013.81;4956418;29;20093;-84
2022/04/28 11:17:21;;;;;;;3.30;2.10;;;;;;;20.97;51.44;100005.84;4942291;29;20027;-85
2022/04/28 11:19:47;;;;;;;4.03;2.30;;;;;;;20.99;51.71;100012.78;4954235;28;20023;-85
2022/04/28 11:22:13;;;;;;;6.15;2.75;;;;;;;20.99;51.57;100017.22;4962008;29;20027;-85
2022/04/28 11:24:46;;;;;;;5.30;2.75;;;;;;;21.00;51.35;100017.16;4962330;28;20078;-85
2022/04/28 11:27:18;;;;;;;5.05;2.30;;;;;;;20.99;51.37;100017.22;4963656;29;20035;-85
2022/04/28 11:29:44;;;;;;;4.22;2.40;;;;;;;21.01;51.23;100015.38;4965684;29;20102;-86
2022/04/28 11:32:11;;;;;;;4.47;2.25;;;;;;;21.02;51.51;100017.06;4981901;28;20027;-86
2022/04/28 11:34:37;;;;;;;3.90;2.40;;;;;;;21.02;51.48;100017.06;4962932;29;20050;-85
2022/04/28 11:37:24;;;;;;;5.38;2.58;;;;;;;21.04;51.62;100015.19;4949210;29;20043;-87
2022/04/28 11:39:56;;;;;;;4.82;2.50;;;;;;;21.04;51.20;100015.19;4960209;29;20023;-83
2022/04/28 11:42:25;;;;;;;3.05;1.90;;;;;;;21.03;51.41;100014.31;4958320;29;20055;-84
2022/04/28 11:44:55;;;;;;;4.20;2.55;;;;;;;21.04;51.56;100023.16;4956601;29;20544;-85
2022/04/28 11:47:23;;;;;;;4.60;2.55;;;;;;;21.04;51.47;100015.19;4956383;29;20102;-85
2022/04/28 11:49:56;;;;;;;4.32;2.20;;;;;;;21.05;51.33;100019.56;4956594;29;20030;-85
2022/04/28 11:52:29;;;;;;;3.80;2.47;;;;;;;21.04;51.54;100021.38;4938916;29;20024;-85
2022/04/28 11:55:01;;;;;;;4.82;2.60;;;;;;;21.04;51.46;100025.81;4937575;29;20058;-84
2022/04/28 11:57:27;;;;;;;5.20;2.80;;;;;;;21.05;51.66;100022.22;4937581;29;20027;-85
2022/04/28 11:59:54;;;;;;;4.57;2.50;;;;;;;21.05;51.57;100028.38;4958385;29;20031;-85